Time;durP1;ratioP1;P1;durP2;ratioP2;P2;SDS_P1;SDS_P2;PMS_P1;PMS_P2;Temp;Humidity;BMP_temperature;BMP_pressure;BME280_temperature;BME280_humidity;BME280_pressure;Samples;Min_cycle;Max_cycle;Signal;HPM_P1;HPM_P2
2023/10/01 00:01:43;;;;;;;1999.90;999.90;;;9.60;92.70;;;;;;5043589;28;20033;-73
2023/10/01 00:04:09;;;;;;;1999.90;999.90;;;9.60;92.50;;;;;;5033762;28;20030;-74
2023/10/01 00:06:36;;;;;;;1999.90;999.90;;;9.60;92.50;;;;;;5026348;28;20072;-72
2023/10/01 00:09:05;;;;;;;1999.90;999.90;;;9.60;92.50;;;;;;5034089;28;20132;-73
2023/10/01 00:11:32;;;;;;;1999.90;999.90;;;9.50;92.60;;;;;;5037586;28;20174;-72
2023/10/01 00:13:59;;;;;;;1999.90;999.90;;;9.40;92.50;;;;;;5031567;28;20030;-74
2023/10/01 00:16:25;;;;;;;1999.90;999.90;;;9.40;92.60;;;;;;5039425;28;20146;-73
2023/10/01 00:18:51;;;;;;;1999.90;999.90;;;9.50;92.90;;;;;;5040366;28;20021;-74
2023/10/01 00:21:17;;;;;;;1999.90;999.90;;;9.60;93.00;;;;;;5038299;28;20076;-74
2023/10/01 00:23:43;;;;;;;1999.90;999.90;;;9.50;93.00;;;;;;5037355;28;20510;-73
2023/10/01 00:26:12;;;;;;;1999.90;999.90;;;9.60;93.30;;;;;;5040454;28;20033;-73
2023/10/01 00:28:38;;;;;;;1999.90;999.90;;;9.60;93.40;;;;;;5036844;28;20033;-73
2023/10/01 00:31:03;;;;;;;1999.90;999.90;;;9.70;93.70;;;;;;5035112;28;20075;-73
2023/10/01 00:33:29;;;;;;;1999.90;999.90;;;9.70;93.80;;;;;;5039477;28;20455;-73
2023/10/01 00:35:55;;;;;;;1999.90;999.90;;;9.90;93.80;;;;;;5039866;28;20036;-73
2023/10/01 00:38:21;;;;;;;1999.90;999.90;;;9.90;93.60;;;;;;5040082;28;20520;-73
2023/10/01 00:40:50;;;;;;;1999.90;999.90;;;9.80;93.60;;;;;;5039505;28;20033;-74
2023/10/01 00:43:15;;;;;;;1999.90;999.90;;;9.80;93.70;;;;;;5041981;28;20369;-73
2023/10/01 00:45:41;;;;;;;1999.90;999.90;;;9.70;93.60;;;;;;5037377;28;20068;-73
2023/10/01 00:48:14;;;;;;;1999.90;999.90;;;9.70;93.50;;;;;;5036893;28;20033;-72
2023/10/01 00:50:40;;;;;;;1999.90;999.90;;;9.70;93.40;;;;;;5034977;28;20040;-73
2023/10/01 00:53:08;;;;;;;1999.90;999.90;;;9.60;93.30;;;;;;5042812;28;20033;-73
2023/10/01 00:55:34;;;;;;;1999.90;999.90;;;9.60;93.10;;;;;;5033974;28;20041;-73
2023/10/01 00:58:00;;;;;;;1999.90;999.90;;;9.70;93.00;;;;;;5038463;28;20417;-73
2023/10/01 01:00:26;;;;;;;1999.90;999.90;;;9.60;92.80;;;;;;5039140;28;20038;-73
2023/10/01 01:03:00;;;;;;;1999.90;999.90;;;9.70;92.90;;;;;;5039695;28;20037;-73
2023/10/01 01:05:49;;;;;;;1999.90;999.90;;;9.90;92.90;;;;;;5034683;28;20037;-73
2023/10/01 01:08:21;;;;;;;1999.90;999.90;;;10.10;92.60;;;;;;5037184;28;20055;-73
2023/10/01 01:10:51;;;;;;;1999.90;999.90;;;10.20;92.30;;;;;;5042096;28;20437;-73
2023/10/01 01:13:17;;;;;;;1999.90;999.90;;;10.30;92.30;;;;;;5037038;28;20029;-74
2023/10/01 01:15:46;;;;;;;1999.90;999.90;;;10.30;92.00;;;;;;5036547;28;20037;-73
2023/10/01 01:18:13;;;;;;;1999.90;999.90;;;10.30;91.90;;;;;;5039803;28;20048;-73
2023/10/01 01:20:45;;;;;;;1999.90;999.90;;;10.20;92.10;;;;;;5033811;28;20029;-73
2023/10/01 01:23:19;;;;;;;1999.90;999.90;;;10.10;92.00;;;;;;5039769;28;20056;-72
2023/10/01 01:25:45;;;;;;;1999.90;999.90;;;10.00;92.00;;;;;;5034641;28;20039;-74
2023/10/01 01:28:23;;;;;;;1999.90;999.90;;;9.90;92.30;;;;;;5024442;28;20025;-73
2023/10/01 01:30:53;;;;;;;1999.90;999.90;;;9.90;92.20;;;;;;5033896;28;20449;-73
2023/10/01 01:33:26;;;;;;;1999.90;999.90;;;9.70;92.40;;;;;;5030494;28;20246;-73
2023/10/01 01:35:54;;;;;;;1999.90;999.90;;;9.70;92.70;;;;;;5032266;28;20029;-73
2023/10/01 01:38:23;;;;;;;1999.90;999.90;;;9.40;92.70;;;;;;5039434;28;20037;-73
2023/10/01 01:40:51;;;;;;;1999.90;999.90;;;9.60;93.20;;;;;;5034282;28;20120;-72
2023/10/01 01:43:21;;;;;;;1999.90;999.90;;;9.50;93.10;;;;;;5033421;28;20041;-73
2023/10/01 01:45:54;;;;;;;1999.90;999.90;;;9.60;93.60;;;;;;5038203;28;20160;-75
2023/10/01 01:48:34;;;;;;;1999.90;999.90;;;9.50;93.60;;;;;;5036334;28;20033;-73
2023/10/01 01:51:01;;;;;;;1999.90;999.90;;;9.50;93.60;;;;;;5038734;28;20024;-73
2023/10/01 01:53:34;;;;;;;1999.90;999.90;;;9.40;93.70;;;;;;5039070;28;20086;-74
2023/10/01 01:56:04;;;;;;;1999.90;999.90;;;9.40;93.60;;;;;;5035471;28;20028;-72
2023/10/01 01:58:32;;;;;;;1999.90;999.90;;;9.40;93.50;;;;;;5035528;28;20049;-73
2023/10/01 02:01:01;;;;;;;1999.90;999.90;;;9.30;93.50;;;;;;5028785;28;20157;-72
2023/10/01 02:03:32;;;;;;;1999.90;999.90;;;9.30;93.50;;;;;;5034868;28;20041;-73
2023/10/01 02:05:58;;;;;;;1999.90;999.90;;;9.30;93.80;;;;;;5037011;28;20037;-74
2023/10/01 02:08:24;;;;;;;1999.90;999.90;;;9.30;93.90;;;;;;5033510;28;20037;-73
2023/10/01 02:10:55;;;;;;;1999.90;999.90;;;9.40;94.00;;;;;;5036403;28;20380;-73
2023/10/01 02:13:25;;;;;;;1999.90;999.90;;;9.30;93.70;;;;;;5034488;28;20546;-73
2023/10/01 02:15:52;;;;;;;1999.90;999.90;;;9.30;93.80;;;;;;5038459;28;20029;-73
2023/10/01 02:18:19;;;;;;;1999.90;999.90;;;9.30;94.00;;;;;;5035138;28;20060;-75
2023/10/01 02:20:52;;;;;;;1999.90;999.90;;;9.20;94.00;;;;;;5032571;28;20095;-74
2023/10/01 02:23:32;;;;;;;1999.90;999.90;;;9.20;94.20;;;;;;5032222;28;20030;-72
2023/10/01 02:26:00;;;;;;;1999.90;999.90;;;9.20;94.00;;;;;;5041928;28;20043;-73
2023/10/01 02:28:26;;;;;;;1999.90;999.90;;;9.20;93.90;;;;;;5033375;28;20060;-72
2023/10/01 02:31:00;;;;;;;1999.90;999.90;;;9.10;93.80;;;;;;5037595;28;20068;-74
2023/10/01 02:33:55;;;;;;;1999.90;999.90;;;9.10;93.90;;;;;;5032540;28;20052;-73
2023/10/01 02:36:18;;;;;;;1999.90;999.90;;;9.10;93.80;;;;;;5030845;28;20179;-73
2023/10/01 02:38:45;;;;;;;1999.90;999.90;;;9.00;93.60;;;;;;5030576;28;20045;-72
2023/10/01 02:41:15;;;;;;;1999.90;999.90;;;9.00;93.60;;;;;;5036046;28;20152;-74
2023/10/01 02:43:41;;;;;;;1999.90;999.90;;;9.00;93.80;;;;;;5033799;28;20033;-73
2023/10/01 02:46:12;;;;;;;1999.90;999.90;;;9.00;93.80;;;;;;5040805;28;20375;-73
2023/10/01 02:48:42;;;;;;;1999.90;999.90;;;9.00;93.80;;;;;;5034330;28;20041;-74
2023/10/01 02:51:17;;;;;;;1999.90;999.90;;;9.00;93.90;;;;;;5034865;28;20033;-73
2023/10/01 02:57:12;;;;;;;1999.90;999.90;;;8.90;93.70;;;;;;5026030;28;20037;-74
2023/10/01 03:02:26;;;;;;;1999.90;999.90;;;8.80;93.60;;;;;;5034426;28;20111;-74
2023/10/01 03:04:52;;;;;;;1999.90;999.90;;;8.80;93.40;;;;;;5036092;28;20100;-73
2023/10/01 03:07:17;;;;;;;1999.90;999.90;;;8.80;93.50;;;;;;5031499;28;20109;-74
2023/10/01 03:09:44;;;;;;;1999.90;999.90;;;8.80;93.40;;;;;;5039709;28;20036;-73
2023/10/01 03:12:34;;;;;;;1999.90;999.90;;;8.80;93.40;;;;;;5039318;28;20040;-73
2023/10/01 03:17:55;;;;;;;;;;;8.70;93.40;;;;;;5031182;28;20073;-74
2023/10/01 03:23:06;;;;;;;1999.90;999.90;;;8.60;93.30;;;;;;5038606;28;19988;-73
2023/10/01 03:25:57;;;;;;;1999.90;999.90;;;8.70;93.40;;;;;;5040242;28;20046;-74
2023/10/01 03:28:26;;;;;;;;;;;8.70;93.30;;;;;;5040403;28;20037;-73
2023/10/01 03:31:06;;;;;;;1999.90;999.90;;;8.70;93.30;;;;;;5037822;28;19928;-73
2023/10/01 03:33:33;;;;;;;1999.90;999.90;;;8.60;93.20;;;;;;5038294;28;20029;-74
2023/10/01 03:35:59;;;;;;;1999.90;999.90;;;8.40;93.30;;;;;;5033415;28;20696;-75
2023/10/01 03:38:25;;;;;;;1999.90;999.90;;;8.40;93.70;;;;;;5039901;28;20033;-73
2023/10/01 03:41:00;;;;;;;1999.90;999.90;;;8.40;93.70;;;;;;5038480;28;20109;-73
2023/10/01 03:43:35;;;;;;;1999.90;999.90;;;8.40;93.70;;;;;;5037153;28;20052;-74
2023/10/01 03:46:28;;;;;;;1999.90;999.90;;;8.30;94.00;;;;;;5034699;28;20483;-73
2023/10/01 03:48:58;;;;;;;1999.90;999.90;;;8.30;94.00;;;;;;5037690;28;20424;-73
2023/10/01 03:57:11;;;;;;;1999.90;999.90;;;8.30;94.10;;;;;;5038736;28;20072;-73
2023/10/01 03:59:38;;;;;;;1999.90;999.90;;;8.30;94.10;;;;;;5039099;28;20017;-74
2023/10/01 04:02:26;;;;;;;1999.90;999.90;;;8.30;94.10;;;;;;5036508;28;20511;-72
2023/10/01 04:04:58;;;;;;;1999.90;999.90;;;8.30;94.30;;;;;;5034635;28;20069;-74
2023/10/01 04:07:42;;;;;;;1999.90;999.90;;;8.30;94.30;;;;;;5034731;28;20035;-73
2023/10/01 04:10:14;;;;;;;1999.90;999.90;;;8.20;94.30;;;;;;5036271;28;20065;-73
2023/10/01 04:12:50;;;;;;;1999.90;999.90;;;8.20;94.60;;;;;;5024180;28;20083;-73
2023/10/01 04:15:55;;;;;;;1999.90;999.90;;;8.20;94.40;;;;;;5038570;28;20061;-73
2023/10/01 04:20:48;;;;;;;1999.90;999.90;;;8.10;94.30;;;;;;5043444;28;20037;-73
2023/10/01 04:23:29;;;;;;;1999.90;999.90;;;8.00;94.30;;;;;;5039338;28;20126;-73
2023/10/01 04:26:08;;;;;;;1999.90;999.90;;;8.00;94.30;;;;;;5038257;28;20037;-73
2023/10/01 04:28:44;;;;;;;1999.90;999.90;;;8.10;94.50;;;;;;5038460;28;20491;-72
2023/10/01 04:31:14;;;;;;;1999.90;999.90;;;8.10;94.30;;;;;;5037853;28;20037;-73
2023/10/01 04:33:43;;;;;;;1999.90;999.90;;;8.10;94.30;;;;;;5041013;28;20104;-73
2023/10/01 04:36:16;;;;;;;1999.90;999.90;;;8.00;94.40;;;;;;5036514;28;20033;-74
2023/10/01 04:38:43;;;;;;;1999.90;999.90;;;8.00;94.50;;;;;;5034780;28;20108;-73
2023/10/01 04:41:15;;;;;;;1999.90;999.90;;;8.00;94.50;;;;;;5036884;28;20073;-74
2023/10/01 04:43:51;;;;;;;1999.90;999.90;;;8.00;94.60;;;;;;5041436;28;20061;-72
2023/10/01 04:46:21;;;;;;;1999.90;999.90;;;8.00;94.70;;;;;;5040870;28;20057;-74
2023/10/01 04:48:47;;;;;;;1999.90;999.90;;;8.00;94.80;;;;;;5035472;28;20115;-74
2023/10/01 04:51:13;;;;;;;1999.90;999.90;;;8.10;94.80;;;;;;5034990;28;20033;-73
2023/10/01 04:53:46;;;;;;;1999.90;999.90;;;8.00;94.70;;;;;;5036659;28;20037;-76
2023/10/01 04:56:20;;;;;;;1999.90;999.90;;;8.00;94.80;;;;;;5037315;28;20029;-73
2023/10/01 04:58:51;;;;;;;1999.90;999.90;;;8.00;95.00;;;;;;5037564;28;20025;-73
2023/10/01 05:01:23;;;;;;;1999.90;999.90;;;8.00;95.00;;;;;;5035667;28;20083;-74
2023/10/01 05:03:50;;;;;;;1999.90;999.90;;;8.00;95.10;;;;;;5038217;28;20043;-73
2023/10/01 05:06:20;;;;;;;1999.90;999.90;;;8.00;95.10;;;;;;5035555;28;20024;-73
2023/10/01 05:08:56;;;;;;;1999.90;999.90;;;8.00;95.10;;;;;;5037721;28;20082;-73
2023/10/01 05:11:22;;;;;;;1999.90;999.90;;;8.00;95.20;;;;;;5034721;28;20095;-74
2023/10/01 05:13:58;;;;;;;1999.90;999.90;;;8.00;95.20;;;;;;5038778;28;20056;-73
2023/10/01 05:16:27;;;;;;;1999.90;999.90;;;8.00;95.30;;;;;;5034325;28;20049;-72
2023/10/01 05:19:13;;;;;;;1999.90;999.90;;;8.00;95.30;;;;;;5031553;28;20029;-73
2023/10/01 05:21:46;;;;;;;1999.90;999.90;;;8.00;95.30;;;;;;5037422;28;20037;-75
2023/10/01 05:24:16;;;;;;;1999.90;999.90;;;8.00;95.10;;;;;;5034192;28;20038;-73
2023/10/01 05:26:43;;;;;;;1999.90;999.90;;;8.00;95.00;;;;;;5031032;28;20466;-74
2023/10/01 05:29:13;;;;;;;1999.90;999.90;;;7.90;94.90;;;;;;5033317;28;20600;-74
2023/10/01 05:31:40;;;;;;;1999.90;999.90;;;7.90;95.00;;;;;;5038471;28;20045;-73
2023/10/01 05:34:05;;;;;;;1999.90;999.90;;;7.90;94.80;;;;;;5034743;28;20748;-73
2023/10/01 05:36:32;;;;;;;1999.90;999.90;;;7.80;94.50;;;;;;5038104;28;20075;-73
2023/10/01 05:39:00;;;;;;;1999.90;999.90;;;7.80;94.70;;;;;;5036295;28;20034;-73
2023/10/01 05:41:35;;;;;;;1999.90;999.90;;;7.80;94.50;;;;;;5038070;28;20025;-74
2023/10/01 05:44:10;;;;;;;1999.90;999.90;;;7.80;94.60;;;;;;5034950;28;20036;-73
2023/10/01 05:46:36;;;;;;;1999.90;999.90;;;7.90;94.80;;;;;;5037196;28;20068;-74
2023/10/01 05:49:03;;;;;;;1999.90;999.90;;;8.00;94.60;;;;;;5038900;28;20072;-74
2023/10/01 05:51:42;;;;;;;1999.90;999.90;;;8.00;94.60;;;;;;5030342;28;20037;-72
2023/10/01 05:54:09;;;;;;;1999.90;999.90;;;8.10;94.50;;;;;;5035795;28;20100;-74
2023/10/01 05:56:47;;;;;;;1999.90;999.90;;;8.10;94.30;;;;;;5033482;28;20534;-73
2023/10/01 05:59:14;;;;;;;1999.90;999.90;;;8.10;94.30;;;;;;5030470;28;20380;-74
2023/10/01 06:01:41;;;;;;;1999.90;999.90;;;8.20;94.30;;;;;;5033522;28;20041;-73
2023/10/01 06:04:12;;;;;;;1999.90;999.90;;;8.20;94.30;;;;;;5035324;28;20060;-73
2023/10/01 06:06:42;;;;;;;;;;;8.30;94.50;;;;;;5033888;28;20029;-73
2023/10/01 06:09:09;;;;;;;1999.90;999.90;;;8.30;94.70;;;;;;5036023;28;20531;-73
2023/10/01 06:11:38;;;;;;;1999.90;999.90;;;8.40;94.70;;;;;;5031441;28;20037;-74
2023/10/01 06:14:08;;;;;;;1999.90;999.90;;;8.50;95.10;;;;;;5033376;28;20463;-73
2023/10/01 06:16:39;;;;;;;1999.90;999.90;;;8.60;94.90;;;;;;5028685;28;20037;-73
2023/10/01 06:19:11;;;;;;;1999.90;999.90;;;8.70;95.00;;;;;;5037143;28;20057;-73
2023/10/01 06:21:39;;;;;;;1999.90;999.90;;;8.80;95.10;;;;;;5032976;28;20037;-73
2023/10/01 06:24:07;;;;;;;1999.90;999.90;;;8.80;95.00;;;;;;5031033;28;20037;-73
2023/10/01 06:26:36;;;;;;;1999.90;999.90;;;8.80;95.10;;;;;;5031752;28;20020;-73
2023/10/01 06:29:10;;;;;;;1999.90;999.90;;;8.90;95.00;;;;;;5029865;28;20044;-73
2023/10/01 06:34:23;;;;;;;1999.90;999.90;;;9.10;95.00;;;;;;5036868;28;20031;-74
2023/10/01 06:36:57;;;;;;;1999.90;999.90;;;9.10;94.90;;;;;;5027137;28;20028;-73
2023/10/01 06:39:24;;;;;;;1999.90;999.90;;;9.20;95.00;;;;;;5033510;28;20032;-73
2023/10/01 06:41:50;;;;;;;1999.90;999.90;;;9.30;94.80;;;;;;5027846;28;20037;-74
2023/10/01 06:44:16;;;;;;;1999.90;999.90;;;9.40;94.90;;;;;;5037416;28;20039;-75
2023/10/01 06:46:42;;;;;;;1999.90;999.90;;;9.40;94.80;;;;;;5032643;28;20140;-73
2023/10/01 06:49:11;;;;;;;1999.90;999.90;;;9.60;94.90;;;;;;5035740;28;20144;-73
2023/10/01 06:51:43;;;;;;;1999.90;999.90;;;9.70;94.80;;;;;;5028160;28;20026;-74
2023/10/01 06:54:10;;;;;;;1999.90;999.90;;;9.70;94.60;;;;;;5031543;28;20034;-74
2023/10/01 06:56:37;;;;;;;1999.90;999.90;;;9.90;94.60;;;;;;5030548;28;20072;-73
2023/10/01 07:01:34;;;;;;;1999.90;999.90;;;10.10;94.40;;;;;;5035845;28;20131;-74
2023/10/01 07:04:05;;;;;;;1999.90;999.90;;;10.20;94.20;;;;;;5042422;28;20036;-74
2023/10/01 07:06:36;;;;;;;1999.90;999.90;;;10.40;94.20;;;;;;5036110;28;20033;-74
2023/10/01 07:09:24;;;;;;;1999.90;999.90;;;10.50;94.10;;;;;;5039788;28;20040;-74
2023/10/01 07:11:57;;;;;;;1999.90;999.90;;;10.50;93.80;;;;;;5035359;28;20042;-73
2023/10/01 07:14:45;;;;;;;1999.90;999.90;;;10.70;93.90;;;;;;5039382;28;20017;-74
2023/10/01 07:17:18;;;;;;;1999.90;999.90;;;10.90;93.90;;;;;;5039682;28;20025;-74
2023/10/01 07:19:45;;;;;;;1999.90;999.90;;;11.10;93.80;;;;;;5037963;28;20029;-74
2023/10/01 07:22:14;;;;;;;1999.90;999.90;;;11.10;93.80;;;;;;5031441;28;20270;-74
2023/10/01 07:24:43;;;;;;;1999.90;999.90;;;11.30;93.90;;;;;;5038866;28;20662;-73
2023/10/01 07:27:12;;;;;;;1999.90;999.90;;;11.40;93.60;;;;;;5031019;28;20124;-74
2023/10/01 07:29:42;;;;;;;1999.90;999.90;;;11.60;93.60;;;;;;5038502;28;20033;-73
2023/10/01 07:32:12;;;;;;;1999.90;999.90;;;11.70;93.50;;;;;;5036763;28;20118;-74
2023/10/01 07:34:52;;;;;;;1999.90;999.90;;;11.90;93.20;;;;;;5039329;28;20035;-74
2023/10/01 07:37:25;;;;;;;1999.90;999.90;;;12.00;93.00;;;;;;5033820;28;20025;-74
2023/10/01 07:39:55;;;;;;;1999.90;999.90;;;12.20;92.80;;;;;;5038380;28;20115;-73
2023/10/01 07:42:22;;;;;;;1999.90;999.90;;;12.30;92.60;;;;;;5039489;28;20057;-74
2023/10/01 07:44:49;;;;;;;1999.90;999.90;;;12.40;92.20;;;;;;5040795;28;20734;-74
2023/10/01 07:47:28;;;;;;;1999.90;999.90;;;12.50;92.20;;;;;;5040009;28;20142;-74
2023/10/01 07:50:12;;;;;;;1999.90;999.90;;;12.70;92.30;;;;;;5031912;28;20112;-74
2023/10/01 07:52:40;;;;;;;1999.90;999.90;;;12.90;92.00;;;;;;5034462;28;20040;-73
2023/10/01 07:55:53;;;;;;;1999.90;999.90;;;13.00;91.50;;;;;;5038760;28;20041;-73
2023/10/01 07:58:16;;;;;;;1999.90;999.90;;;13.10;91.10;;;;;;5023633;28;20050;-74
2023/10/01 08:00:39;;;;;;;1999.90;999.90;;;13.30;91.10;;;;;;5036860;28;20087;-72
2023/10/01 08:03:55;;;;;;;1999.90;999.90;;;13.40;90.70;;;;;;5029148;28;20063;-73
2023/10/01 08:06:05;;;;;;;1999.90;999.90;;;13.60;90.50;;;;;;5033900;28;20178;-74
2023/10/01 08:08:37;;;;;;;1999.90;999.90;;;13.80;90.60;;;;;;5041668;28;20033;-75
2023/10/01 08:13:51;;;;;;;1999.90;999.90;;;14.10;88.80;;;;;;5034001;28;20082;-73
2023/10/01 08:16:17;;;;;;;1999.90;999.90;;;14.40;88.30;;;;;;5033260;28;20026;-74
2023/10/01 08:18:46;;;;;;;1999.90;999.90;;;14.50;88.20;;;;;;5042697;28;20032;-74
2023/10/01 08:21:18;;;;;;;1999.90;999.90;;;14.60;86.70;;;;;;5034226;28;20117;-74
2023/10/01 08:23:48;;;;;;;1999.90;999.90;;;14.60;86.80;;;;;;5036342;28;20061;-74
2023/10/01 08:29:03;;;;;;;1999.90;999.90;;;14.80;86.60;;;;;;5037797;28;20036;-75
2023/10/01 08:34:28;;;;;;;1999.90;999.90;;;15.20;87.00;;;;;;5020604;28;20048;-74
2023/10/01 08:36:55;;;;;;;1999.90;999.90;;;15.40;86.80;;;;;;5037329;28;20034;-74
2023/10/01 08:39:48;;;;;;;1999.90;999.90;;;15.50;86.00;;;;;;5028886;28;20075;-74
2023/10/01 08:42:17;;;;;;;1999.90;999.90;;;15.60;86.20;;;;;;5031138;28;20068;-74
2023/10/01 08:44:51;;;;;;;1999.90;999.90;;;15.80;85.60;;;;;;5043099;28;20483;-74
2023/10/01 08:49:55;;;;;;;1999.90;999.90;;;16.10;84.60;;;;;;5036311;28;20160;-74
2023/10/01 08:52:27;;;;;;;1999.90;999.90;;;16.30;84.00;;;;;;5039475;28;20065;-74
2023/10/01 08:54:56;;;;;;;1999.90;999.90;;;16.50;83.40;;;;;;5033230;28;20048;-74
2023/10/01 08:57:36;;;;;;;1999.90;999.90;;;16.60;83.40;;;;;;5032854;28;20048;-75
2023/10/01 09:00:17;;;;;;;1999.90;999.90;;;16.80;81.10;;;;;;5032507;28;20029;-74
2023/10/01 09:02:49;;;;;;;1999.90;999.90;;;17.00;81.10;;;;;;5027004;28;20483;-74
2023/10/01 09:05:23;;;;;;;1999.90;999.90;;;17.00;81.20;;;;;;5033064;28;20116;-74
2023/10/01 09:08:42;;;;;;;1999.90;999.90;;;17.10;79.80;;;;;;5037748;28;20041;-74
2023/10/01 09:10:39;;;;;;;1999.90;999.90;;;17.30;79.80;;;;;;5030062;28;20495;-74
2023/10/01 09:13:08;;;;;;;1999.90;999.90;;;17.30;79.60;;;;;;5029522;28;20060;-74
2023/10/01 09:15:38;;;;;;;1999.90;999.90;;;17.40;78.40;;;;;;5034024;28;20115;-74
2023/10/01 09:18:10;;;;;;;1999.90;999.90;;;17.60;77.80;;;;;;5032685;28;20159;-74
2023/10/01 09:20:39;;;;;;;1999.90;999.90;;;17.70;77.00;;;;;;5030433;28;20037;-74
2023/10/01 09:23:05;;;;;;;1999.90;999.90;;;17.90;75.30;;;;;;5033395;28;20028;-74
2023/10/01 09:25:34;;;;;;;1999.90;999.90;;;17.70;76.60;;;;;;5024832;28;20079;-74
2023/10/01 09:28:43;;;;;;;1999.90;999.90;;;18.00;77.00;;;;;;5034251;28;20039;-74
2023/10/01 09:31:27;;;;;;;1999.90;999.90;;;18.10;78.50;;;;;;5028310;28;20049;-74
2023/10/01 09:33:48;;;;;;;1999.90;999.90;;;18.20;77.50;;;;;;5036988;28;20075;-74
2023/10/01 09:36:45;;;;;;;1999.90;999.90;;;18.30;74.10;;;;;;5031098;28;20040;-74
2023/10/01 09:39:13;;;;;;;1999.90;999.90;;;18.60;74.50;;;;;;5031600;28;20645;-73
2023/10/01 09:41:41;;;;;;;1999.90;999.90;;;18.70;73.30;;;;;;5039254;28;20083;-74
2023/10/01 09:44:14;;;;;;;1999.90;999.90;;;18.80;72.80;;;;;;5030186;28;20033;-72
2023/10/01 09:46:42;;;;;;;1999.90;999.90;;;18.90;72.60;;;;;;5034474;28;20120;-72
2023/10/01 09:49:08;;;;;;;1999.90;999.90;;;19.10;72.90;;;;;;5034834;28;20029;-72
2023/10/01 09:51:41;;;;;;;1999.90;999.90;;;19.20;70.80;;;;;;5031673;28;20037;-72
2023/10/01 09:54:13;;;;;;;1999.90;999.90;;;19.40;72.20;;;;;;5031592;28;20108;-71
2023/10/01 09:56:46;;;;;;;1999.90;999.90;;;19.20;72.10;;;;;;5035293;28;20044;-72
2023/10/01 09:59:13;;;;;;;1999.90;999.90;;;19.60;69.50;;;;;;5031331;28;20076;-72
2023/10/01 10:01:40;;;;;;;1999.90;999.90;;;19.80;67.90;;;;;;5028948;28;20395;-72
2023/10/01 10:04:10;;;;;;;1999.90;999.90;;;20.00;68.30;;;;;;5032617;28;20158;-72
2023/10/01 10:06:41;;;;;;;1999.90;999.90;;;19.80;67.30;;;;;;5033799;28;20483;-72
2023/10/01 10:09:25;;;;;;;1999.90;999.90;;;19.80;68.00;;;;;;5035514;28;20484;-72
2023/10/01 10:11:51;;;;;;;1999.90;999.90;;;19.90;68.00;;;;;;5029952;28;20403;-72
2023/10/01 10:14:25;;;;;;;1999.90;999.90;;;19.80;66.80;;;;;;5029642;28;20060;-74
2023/10/01 10:16:56;;;;;;;1999.90;999.90;;;19.80;67.30;;;;;;5032631;28;20499;-71
2023/10/01 10:19:22;;;;;;;1999.90;999.90;;;19.90;65.90;;;;;;5032672;28;20112;-71
2023/10/01 10:22:05;;;;;;;1999.90;999.90;;;20.00;67.00;;;;;;5030919;28;20133;-71
2023/10/01 10:24:46;;;;;;;1999.90;999.90;;;20.20;66.50;;;;;;5033588;28;20037;-71
2023/10/01 10:27:35;;;;;;;1999.90;999.90;;;20.20;66.50;;;;;;5031671;28;20490;-71
2023/10/01 10:30:06;;;;;;;1999.90;999.90;;;20.20;66.10;;;;;;5034895;28;20063;-71
2023/10/01 10:32:47;;;;;;;1999.90;999.90;;;20.50;63.50;;;;;;5034429;28;20079;-71
2023/10/01 10:35:15;;;;;;;1999.90;999.90;;;20.60;62.00;;;;;;5034413;28;20108;-72
2023/10/01 10:37:58;;;;;;;1999.90;999.90;;;20.70;63.40;;;;;;5033936;28;20029;-71
2023/10/01 10:40:26;;;;;;;1999.90;999.90;;;20.90;64.00;;;;;;5029525;28;20610;-71
2023/10/01 10:43:04;;;;;;;1999.90;999.90;;;21.10;61.20;;;;;;5032223;28;20042;-71
2023/10/01 10:45:43;;;;;;;1999.90;999.90;;;21.30;62.40;;;;;;5027795;28;20040;-71
2023/10/01 10:48:21;;;;;;;1999.90;999.90;;;21.70;59.90;;;;;;5036129;28;20029;-72
2023/10/01 10:50:53;;;;;;;1999.90;999.90;;;21.70;59.00;;;;;;5036304;28;20029;-71
2023/10/01 10:53:20;;;;;;;1999.90;999.90;;;22.10;56.20;;;;;;5030641;28;20026;-72
2023/10/01 10:56:08;;;;;;;1999.90;999.90;;;22.60;53.90;;;;;;5028571;28;20406;-71
2023/10/01 10:58:41;;;;;;;1999.90;999.90;;;22.50;54.40;;;;;;5028932;28;20060;-72
2023/10/01 11:01:18;;;;;;;1999.90;999.90;;;22.40;55.60;;;;;;5029704;28;20033;-71
2023/10/01 11:03:57;;;;;;;1999.90;999.90;;;22.90;55.70;;;;;;5024823;28;20602;-72
2023/10/01 11:06:23;;;;;;;1999.90;999.90;;;23.10;50.10;;;;;;5031977;28;20042;-72
2023/10/01 11:08:52;;;;;;;1999.90;999.90;;;23.10;51.20;;;;;;5035269;28;20033;-72
2023/10/01 11:11:23;;;;;;;1999.90;999.90;;;23.60;51.40;;;;;;5030851;28;20030;-72
2023/10/01 11:13:59;;;;;;;1999.90;999.90;;;23.50;48.90;;;;;;5027504;28;20025;-72
2023/10/01 11:16:39;;;;;;;1999.90;999.90;;;23.50;52.00;;;;;;5032316;28;20553;-71
2023/10/01 11:19:12;;;;;;;1999.90;999.90;;;23.10;54.10;;;;;;5031368;28;20125;-71
2023/10/01 11:21:56;;;;;;;1999.90;999.90;;;23.00;55.00;;;;;;5038484;28;20112;-71
2023/10/01 11:24:41;;;;;;;1999.90;999.90;;;23.40;53.80;;;;;;5029658;28;20061;-72
2023/10/01 11:30:17;;;;;;;1999.90;999.90;;;23.60;50.90;;;;;;5031393;28;20047;-72
2023/10/01 11:36:09;;;;;;;1999.90;999.90;;;24.80;46.20;;;;;;5030841;28;20091;-72
2023/10/01 11:38:35;;;;;;;1999.90;999.90;;;24.90;42.60;;;;;;5038354;28;20040;-71
2023/10/01 11:41:13;;;;;;;1999.90;999.90;;;24.30;48.40;;;;;;5031992;28;20120;-72
2023/10/01 11:44:02;;;;;;;1999.90;999.90;;;25.30;46.90;;;;;;5036567;28;20041;-71
2023/10/01 11:46:35;;;;;;;1999.90;999.90;;;26.90;40.50;;;;;;5037436;28;20484;-72
2023/10/01 11:49:06;;;;;;;1999.90;999.90;;;27.00;41.30;;;;;;5032423;28;20049;-72
2023/10/01 11:51:42;;;;;;;1999.90;999.90;;;26.40;42.00;;;;;;5028877;28;20052;-72
2023/10/01 11:54:14;;;;;;;1999.90;999.90;;;27.50;39.80;;;;;;5031232;28;20112;-73
2023/10/01 11:56:45;;;;;;;1999.90;999.90;;;27.80;37.00;;;;;;5034911;28;20083;-73
2023/10/01 11:59:18;;;;;;;1999.90;999.90;;;27.80;36.60;;;;;;5035149;28;20033;-74
2023/10/01 12:01:49;;;;;;;1999.90;999.90;;;27.60;37.00;;;;;;5036456;28;20116;-74
2023/10/01 12:07:15;;;;;;;1999.90;999.90;;;26.80;35.50;;;;;;5036477;28;20086;-74
2023/10/01 12:09:49;;;;;;;1999.90;999.90;;;27.50;40.10;;;;;;5030670;28;20044;-74
2023/10/01 12:12:25;;;;;;;1999.90;999.90;;;26.90;40.10;;;;;;5035156;28;20376;-74
2023/10/01 12:14:55;;;;;;;1999.90;999.90;;;27.80;35.30;;;;;;5035661;28;20464;-74
2023/10/01 12:17:28;;;;;;;1999.90;999.90;;;28.70;34.60;;;;;;5039287;28;20021;-74
2023/10/01 12:20:03;;;;;;;1999.90;999.90;;;28.70;33.00;;;;;;5037197;28;20026;-74
2023/10/01 12:22:30;;;;;;;1999.90;999.90;;;28.80;34.00;;;;;;5037159;28;20072;-74
2023/10/01 12:24:58;;;;;;;1999.90;999.90;;;28.40;32.60;;;;;;5035725;28;20488;-74
2023/10/01 12:27:37;;;;;;;1999.90;999.90;;;27.80;33.60;;;;;;5033534;28;20084;-74
2023/10/01 12:30:11;;;;;;;1999.90;999.90;;;28.50;32.00;;;;;;5036160;28;20083;-74
2023/10/01 12:32:47;;;;;;;1999.90;999.90;;;29.10;30.30;;;;;;5029731;28;20054;-74
2023/10/01 12:35:27;;;;;;;1999.90;999.90;;;29.30;31.00;;;;;;5031431;28;20064;-73
2023/10/01 12:38:42;;;;;;;;;;;28.90;30.50;;;;;;5036828;28;20041;-72
2023/10/01 12:40:49;;;;;;;1999.90;999.90;;;29.70;29.10;;;;;;5035354;28;19913;-72
2023/10/01 12:46:00;;;;;;;1999.90;999.90;;;30.30;27.70;;;;;;5034050;28;20048;-72
2023/10/01 12:48:26;;;;;;;1999.90;999.90;;;30.50;25.40;;;;;;5036505;28;20487;-73
2023/10/01 12:51:03;;;;;;;1999.90;999.90;;;31.30;27.50;;;;;;5034499;28;20133;-73
2023/10/01 12:53:35;;;;;;;1999.90;999.90;;;30.80;27.40;;;;;;5031554;28;20065;-73
2023/10/01 12:56:05;;;;;;;1999.90;999.90;;;31.70;24.40;;;;;;5035086;28;20041;-73
2023/10/01 12:58:36;;;;;;;;;;;32.00;22.80;;;;;;5035013;28;20499;-73
2023/10/01 13:01:04;;;;;;;1999.90;999.90;;;32.20;22.80;;;;;;5030015;28;19913;-73
2023/10/01 13:03:29;;;;;;;1999.90;999.90;;;31.80;26.00;;;;;;5035954;28;20082;-73
2023/10/01 13:05:55;;;;;;;1999.90;999.90;;;31.80;22.90;;;;;;5036207;28;20033;-73
2023/10/01 13:08:27;;;;;;;1999.90;999.90;;;31.50;22.30;;;;;;5038791;28;20037;-73
2023/10/01 13:10:57;;;;;;;1999.90;999.90;;;32.90;22.10;;;;;;5032583;28;20499;-73
2023/10/01 13:13:35;;;;;;;1999.90;999.90;;;33.30;23.30;;;;;;5035044;28;20030;-73
2023/10/01 13:16:02;;;;;;;1999.90;999.90;;;31.90;23.00;;;;;;5030468;28;20523;-73
2023/10/01 13:18:28;;;;;;;1999.90;999.90;;;32.90;22.80;;;;;;5036274;28;20040;-73